Latest Coastal Weather Observations for Cape Wessel

IDD60701

Issued at 10:11 pm CST Sunday 14 February 2016 (issued every 10 minutes, with the page automatically refreshed every 10 minutes)

About coastal observations | Map of coastal stations | Coastal observations for NT | Marine services | Other Formats
Station Details ID: 200786 Name: CAPE WESSEL Lat: -11.00 Lon: 136.76 Height: 18.0 m
Data from the previous 72 hours. | See also: Recent months at Cape Wessel
Date/Time
CST
Temp

°C
Wind Pressure Rain
since 9am
mm
Weather Cloud Vis
km
Sea
Height
m
Swell
Dir
 
Speed
knots
Gust
knots
hPa Trend Height
m
Period
s
Dir
14/10:00pm 27.4 CALM 0 0 1009.7 - 0.0 - - - - - - -
14/09:30pm 27.6 CALM 0 0 1009.6 - 0.0 - - - - - - -
14/09:00pm 27.7 SSW 2 3 1009.3 - 0.0 - - - - - - -
14/08:30pm 28.1 SSW 4 5 1009.1 - 0.0 - - - - - - -
14/08:00pm 28.2 SSW 5 6 1008.6 - 0.0 - - - - - - -
14/07:30pm 28.4 SSW 5 6 1008.6 - 0.0 - - - - - - -
14/07:00pm 28.6 S 3 5 1008.2 - 0.0 - - - - - - -
14/06:30pm 29.4 E 3 4 1007.6 - 0.0 - - - - - - -
14/06:00pm 30.0 E 1 4 1007.2 - 0.0 - - - - - - -
14/05:30pm 30.4 E 3 4 1007.2 - 0.0 - - - - - - -
14/05:00pm 30.8 N 4 5 1007.0 - 0.0 - - - - - - -
14/04:30pm 31.2 N 3 5 1006.7 - 0.0 - - - - - - -
14/04:00pm 31.5 N 5 6 1006.6 - 0.0 - - - - - - -
14/03:30pm 31.9 N 5 6 1006.7 - 0.0 - - - - - - -
14/03:00pm 32.2 N 5 6 1006.9 - 0.0 - - - - - - -
14/02:30pm 32.0 N 5 6 1007.1 - 0.0 - - - - - - -
14/02:00pm 32.9 N 5 7 1007.2 - 0.0 - - - - - - -
14/01:30pm 33.0 E 4 6 1007.3 - 0.0 - - - - - - -
14/01:00pm 32.4 E 6 8 1007.7 - 0.0 - - - - - - -
14/12:30pm 32.7 E 7 9 1008.1 - 0.0 - - - - - - -
14/12:00pm 32.6 ENE 7 8 1008.5 - 0.0 - - - - - - -
14/11:30am 33.0 ESE 6 8 1008.8 - 0.0 - - - - - - -
14/11:00am 32.3 SE 6 7 1009.0 - 0.0 - - - - - - -
14/10:30am 32.4 ESE 6 8 1009.3 - 0.0 - - - - - - -
14/10:00am 31.8 ESE 5 6 1009.4 - 0.0 - - - - - - -
14/09:30am 31.7 ESE 5 7 1009.3 - 0.0 - - - - - - -
14/09:00am 31.3 ESE 5 6 1009.2 - 0.0 - - - - - - -
14/08:30am 30.6 N 4 6 1008.9 - 0.0 - - - - - - -
14/08:00am 29.1 SE 5 6 1008.5 - 0.0 - - - - - - -
14/07:30am 28.3 ESE 6 7 1007.9 - 0.0 - - - - - - -
14/07:00am 26.8 ESE 4 5 1007.4 - 0.0 - - - - - - -
14/06:30am 26.6 SE 5 6 1007.1 - 0.0 - - - - - - -
14/06:00am 26.6 SSE 5 6 1006.6 - 0.0 - - - - - - -
14/05:30am 26.8 SSE 4 5 1006.2 - 0.0 - - - - - - -
14/05:00am 27.2 SSE 6 7 1006.0 - 0.0 - - - - - - -
14/04:30am 27.3 SSE 6 7 1005.9 - 0.0 - - - - - - -
14/04:00am 27.9 SSE 6 8 1006.0 - 0.0 - - - - - - -
14/03:30am 28.1 SSE 7 9 1006.2 - 0.0 - - - - - - -
14/03:00am 28.3 SSE 8 10 1006.3 - 0.0 - - - - - - -
14/02:30am 28.4 SSE 11 12 1006.5 - 0.0 - - - - - - -
14/02:00am 28.3 SSE 9 11 1006.9 - 0.0 - - - - - - -
14/01:30am 28.4 SSE 9 11 1007.2 - 0.0 - - - - - - -
14/01:00am 28.5 SE 9 11 1007.6 - 0.0 - - - - - - -
14/12:30am 28.6 SE 9 11 1008.2 - 0.0 - - - - - - -
14/12:00am 28.3 SSE 8 10 1008.7 - 0.0 - - - - - - -
 
Date/Time
CST
Temp

°C
Wind Pressure Rain
since 9am
mm
Weather Cloud Vis
km
Sea
Height
m
Swell
Dir
 
Speed
knots
Gust
knots
hPa Trend Height
m
Period
s
Dir
13/11:30pm 28.2 SSE 7 9 1009.0 - 0.0 - - - - - - -
13/11:00pm 28.0 SSE 6 7 1009.2 - 0.0 - - - - - - -
13/10:30pm 27.6 SSE 7 8 1008.9 - 0.0 - - - - - - -
13/10:00pm 27.2 W 2 5 1008.6 - 0.0 - - - - - - -
13/09:30pm 27.1 CALM 0 0 1008.5 - 0.0 - - - - - - -
13/09:00pm 27.5 CALM 0 0 1008.2 - 0.0 - - - - - - -
13/08:30pm 27.6 CALM 0 0 1008.0 - 0.0 - - - - - - -
13/08:00pm 27.7 CALM 0 0 1007.6 - 0.0 - - - - - - -
13/07:30pm 28.0 CALM 0 0 1007.4 - 0.0 - - - - - - -
13/07:00pm 28.6 CALM 0 0 1007.1 - 0.0 - - - - - - -
13/06:30pm 28.9 SE 3 4 1006.9 - 0.0 - - - - - - -
13/06:00pm 29.4 SE 3 5 1006.6 - 0.0 - - - - - - -
13/05:30pm 29.6 SSE 5 6 1006.3 - 0.0 - - - - - - -
13/05:00pm 29.9 SSE 6 7 1005.9 - 0.0 - - - - - - -
13/04:30pm 29.9 SE 5 7 1006.1 - 0.0 - - - - - - -
13/04:00pm 30.2 ESE 10 13 1005.9 - 0.0 - - - - - - -
13/03:30pm 30.3 SSE 13 19 1006.3 - 0.0 - - - - - - -
13/03:00pm 33.0 SE 8 10 1005.9 - 0.0 - - - - - - -
13/02:30pm 32.7 SE 7 10 1006.3 - 0.0 - - - - - - -
13/02:00pm 32.6 SE 8 9 1006.2 - 0.0 - - - - - - -
13/01:30pm 32.3 SE 9 11 1006.7 - 0.0 - - - - - - -
13/01:00pm 31.9 SE 9 11 1007.2 - 0.0 - - - - - - -
13/12:30pm 31.1 SE 9 11 1007.2 - 0.0 - - - - - - -
13/12:00pm 31.2 SSE 10 13 1007.4 - 0.0 - - - - - - -
13/11:30am 31.5 W 5 10 1007.7 - 0.0 - - - - - - -
13/11:00am 31.8 WNW 6 7 1008.0 - 0.0 - - - - - - -
13/10:30am 31.7 W 7 8 1008.3 - 0.0 - - - - - - -
13/10:00am 31.4 WSW 6 9 1008.7 - 0.0 - - - - - - -
13/09:30am 31.6 WSW 7 8 1008.5 - 0.0 - - - - - - -
13/09:00am 31.0 W 8 9 1008.4 - 49.8 - - - - - - -
13/08:30am 30.0 W 7 9 1008.7 - 49.8 - - - - - - -
13/08:00am 29.0 WSW 8 10 1008.3 - 49.8 - - - - - - -
13/07:30am 28.0 WNW 6 7 1008.0 - 49.8 - - - - - - -
13/07:00am 26.9 WNW 7 9 1007.7 - 49.8 - - - - - - -
13/06:30am 26.6 W 8 10 1007.3 - 49.8 - - - - - - -
13/06:00am 26.1 W 15 18 1007.3 - 49.4 Recent precip. - - - - - -
13/05:46am 26.2 W 14 22 1007.2 - 49.4 - - - - - - -
13/05:30am 26.3 WNW 8 9 1007.1 - 49.2 - - - - - - -
13/05:00am 25.7 SSW 10 15 1006.8 - 29.4 - - - - - - -
13/04:30am 28.7 W 12 15 1006.2 - 21.6 - - - - - - -
13/04:00am 28.8 W 9 11 1006.0 - 21.6 - - - - - - -
13/03:30am 29.0 W 10 11 1006.2 - 21.6 - - - - - - -
13/03:00am 28.9 W 9 11 1006.0 - 21.6 - - - - - - -
13/02:30am 28.9 W 10 12 1006.3 - 21.6 - - - - - - -
13/02:00am 29.0 W 9 12 1006.6 - 21.6 - - - - - - -
13/01:30am 28.9 W 9 11 1007.0 - 21.6 - - - - - - -
13/01:00am 28.9 W 9 11 1007.1 - 21.6 - - - - - - -
13/12:30am 28.9 W 8 9 1007.3 - 21.6 - - - - - - -
13/12:00am 28.9 WNW 8 9 1007.7 - 21.6 - - - - - - -
 
Date/Time
CST
Temp

°C
Wind Pressure Rain
since 9am
mm
Weather Cloud Vis
km
Sea
Height
m
Swell
Dir
 
Speed
knots
Gust
knots
hPa Trend Height
m
Period
s
Dir
12/11:30pm 28.8 WNW 9 11 1008.0 - 21.6 - - - - - - -
12/11:00pm 28.7 WSW 6 8 1008.2 - 21.6 - - - - - - -
12/10:30pm 28.8 WSW 6 7 1008.2 - 21.6 - - - - - - -
12/10:00pm 28.8 WSW 6 7 1008.4 - 21.6 - - - - - - -
12/09:30pm 28.9 WSW 7 8 1008.3 - 21.6 - - - - - - -
12/09:00pm 29.0 WSW 8 9 1008.0 - 21.6 - - - - - - -
12/08:30pm 29.1 W 9 11 1007.8 - 21.6 - - - - - - -
12/08:00pm 29.1 W 9 10 1007.2 - 21.6 - - - - - - -
12/07:30pm 29.4 W 9 10 1006.7 - 21.6 - - - - - - -
12/07:00pm 29.3 W 10 11 1006.7 - 21.6 - - - - - - -
12/06:30pm 29.6 W 9 10 1006.4 - 21.6 - - - - - - -
12/06:00pm 30.7 W 10 12 1006.2 - 21.6 - - - - - - -
12/05:30pm 31.2 W 12 14 1005.9 - 21.6 - - - - - - -
12/05:00pm 30.7 W 10 13 1005.7 - 21.6 - - - - - - -
12/04:30pm 31.8 W 13 15 1005.5 - 21.6 - - - - - - -
12/04:00pm 31.6 WNW 13 16 1005.5 - 21.6 - - - - - - -
12/03:30pm 32.1 WNW 13 16 1005.7 - 21.6 - - - - - - -
12/03:00pm 32.1 WNW 15 17 1005.6 - 21.6 - - - - - - -
12/02:30pm 32.3 WNW 12 17 1005.9 - 21.6 - - - - - - -
12/02:00pm 32.3 NW 12 15 1006.1 - 21.6 - - - - - - -
12/01:30pm 30.3 WNW 12 14 1006.5 - 21.4 - - - - - - -
12/01:00pm 30.3 WNW 12 15 1007.3 - 21.4 - - - - - - -
12/12:30pm 30.7 WNW 13 15 1007.5 - 21.4 - - - - - - -
12/12:00pm 29.7 W 13 16 1007.7 - 21.4 - - - - - - -
12/11:30am 28.7 WNW 12 15 1008.3 - 21.4 - - - - - - -
12/11:00am 27.5 WNW 10 13 1008.6 - 21.4 - - - - - - -
12/10:30am 26.6 W 10 13 1009.0 - 21.4 - - - - - - -
12/10:00am 25.3 W 10 12 1009.6 - 21.4 - - - - - - -
12/09:30am 25.2 WSW 12 16 1010.2 - 15.6 - - - - - - -
12/09:00am 25.5 WSW 12 17 1009.9 - 33.0 Showers - - - - - -
12/08:48am 26.1 WSW 15 23 1009.9 - 22.4 - - - - - - -
12/08:30am 26.4 WNW 7 11 1009.6 - 16.2 - - - - - - -
12/08:11am 26.6 SW 11 23 1009.5 - 6.4 - - - - - - -
12/08:00am 27.0 S 9 11 1009.2 - 0.6 - - - - - - -
12/07:35am 28.5 W 13 26 1008.5 - 0.2 - - - - - - -
12/07:30am 29.1 WNW 9 11 1008.4 - 0.2 - - - - - - -
12/07:00am 28.5 WNW 15 18 1008.0 - 0.2 - - - - - - -
12/06:30am 29.0 W 15 16 1007.5 - 0.2 - - - - - - -
12/06:00am 28.9 WNW 15 18 1007.0 - 0.2 - - - - - - -
12/05:30am 28.8 WNW 13 18 1006.9 - 0.2 - - - - - - -
12/05:00am 28.7 WNW 15 19 1006.5 - 0.2 - - - - - - -
12/04:30am 28.7 WNW 16 19 1006.5 - 0.2 - - - - - - -
12/04:00am 28.4 NW 16 19 1006.4 - 0.2 - - - - - - -
12/03:30am 28.4 WNW 15 19 1006.3 - 0.2 - - - - - - -
12/03:00am 28.2 WNW 16 21 1006.3 - 0.2 Recent precip. - - - - - -
12/02:30am 28.6 WNW 14 20 1006.5 - 0.0 - - - - - - -
12/02:00am 28.4 WNW 14 17 1006.7 - 0.0 - - - - - - -
12/01:30am 29.3 WNW 13 16 1007.0 - 0.0 - - - - - - -
12/01:00am 29.3 WNW 12 14 1007.2 - 0.0 - - - - - - -
12/12:30am 29.3 WNW 11 13 1007.5 - 0.0 - - - - - - -
12/12:00am 29.3 W 12 14 1008.0 - 0.0 - - - - - - -
 
Date/Time
CST
Temp

°C
Wind Pressure Rain
since 9am
mm
Weather Cloud Vis
km
Sea
Height
m
Swell
Dir
 
Speed
knots
Gust
knots
hPa Trend Height
m
Period
s
Dir
11/11:30pm 29.4 W 12 14 1008.0 - 0.0 - - - - - - -
11/11:00pm 29.4 W 12 14 1007.9 - 0.0 - - - - - - -
11/10:30pm 29.5 W 12 14 1008.2 - 0.0 - - - - - - -

Other Formats:

Comma delimited format used in spreadsheet applications
http://www.bom.gov.au/fwo/IDD60701/IDD60701.94147.axf

JavaScript Object Notation format (JSON) in row-major order
http://www.bom.gov.au/fwo/IDD60701/IDD60701.94147.json